Messwerte Pisco

Temperatur

Temperatur
°C
1603850400 21.00 21.00 17
1603854000 22.00 22.00 17
1603857600 23.00 23.00 16
1603861200 0.00 0.00 17
1603864800 1.00 1.00 16
1603868400 2.00 2.00 16
1603872000 3.00 3.00 16
1603875600 4.00 4.00 16
1603879200 5.00 5.00 16
1603882800 6.00 6.00 15
1603886400 7.00 7.00 17
1603890000 8.00 8.00
1603893600 9.00 9.00 18
1603897200 10.00 10.00 18
1603900800 11.00 11.00 19
1603904400 12.00 12.00 21
1603908000 13.00 13.00 22
1603911600 14.00 14.00 21
1603915200 15.00 15.00 21
1603918800 16.00 16.00 20
1603922400 17.00 17.00
1603926000 18.00 18.00
1603929600 19.00 19.00 17
1603933200 20.00 20.00 17

Aktuellste Messwerte

Wettercharakter
Wetter: meist klar
Temperatur
16 °C
Feuchtigkeit
90 %
Wind
25 km/hWindrichtung: Südwest
Luftdruck
1014 hPa
Messzeit: 28. Oktober 2020, 21.00Datenquelle: METAR

Weitere Messstationen in der Nähe

Messstation Temperatur Entfernung
Cuzco - 464 km

Wind

Windrichtung Böen Mittelwind
° km/h km/h
1603850400 21.00 20.00 - 21.00 210° 20
1603854000 22.00 21.00 - 22.00 190° 15
1603857600 23.00 22.00 - 23.00 220° 20
1603861200 0.00 23.00 - 0.00 220° 20
1603864800 1.00 0.00 - 1.00 210° 20
1603868400 2.00 1.00 - 2.00 200° 15
1603872000 3.00 2.00 - 3.00 5
1603875600 4.00 3.00 - 4.00 5
1603879200 5.00 4.00 - 5.00 210° 10
1603882800 6.00 5.00 - 6.00 5
1603886400 7.00 6.00 - 7.00 5
1603890000 8.00 7.00 - 8.00
1603893600 9.00 8.00 - 9.00 270° 10
1603897200 10.00 9.00 - 10.00 300° 15
1603900800 11.00 10.00 - 11.00 300° 20
1603904400 12.00 11.00 - 12.00 290° 10
1603908000 13.00 12.00 - 13.00 250° 20
1603911600 14.00 13.00 - 14.00 220° 35
1603915200 15.00 14.00 - 15.00 220° 45
1603918800 16.00 15.00 - 16.00 220° 35
1603922400 17.00 16.00 - 17.00
1603926000 18.00 17.00 - 18.00
1603929600 19.00 18.00 - 19.00 210° 30
1603933200 20.00 19.00 - 20.00 210° 30

Ihre Wetterstation

Fehlt Ihre Wetterstation auf unserem Portal?

Schreiben Sie an network@meteonews.ch

Klima

Wann ist es am wärmsten? Wann regnet es am wenigsten? Unsere Klimadaten geben Auskunft.